sensor_id;sensor_type;location;lat;lon;timestamp;P1;durP1;ratioP1;P2;durP2;ratioP2
8131;SDS011;4107;49.212;9.198;2022-08-19T00:00:24;13.80;;;12.40;;
8131;SDS011;4107;49.212;9.198;2022-08-19T00:02:50;14.30;;;13.00;;
8131;SDS011;4107;49.212;9.198;2022-08-19T00:05:16;13.77;;;12.30;;
8131;SDS011;4107;49.212;9.198;2022-08-19T00:07:44;13.23;;;12.03;;
8131;SDS011;4107;49.212;9.198;2022-08-19T00:10:11;13.43;;;12.23;;
8131;SDS011;4107;49.212;9.198;2022-08-19T00:12:38;14.17;;;12.77;;
8131;SDS011;4107;49.212;9.198;2022-08-19T00:15:05;13.77;;;12.47;;
8131;SDS011;4107;49.212;9.198;2022-08-19T00:17:32;13.40;;;12.30;;
8131;SDS011;4107;49.212;9.198;2022-08-19T00:19:57;14.67;;;13.27;;
8131;SDS011;4107;49.212;9.198;2022-08-19T00:22:23;14.87;;;13.57;;
8131;SDS011;4107;49.212;9.198;2022-08-19T00:24:49;15.40;;;13.90;;
8131;SDS011;4107;49.212;9.198;2022-08-19T00:27:14;14.70;;;13.30;;
8131;SDS011;4107;49.212;9.198;2022-08-19T00:29:41;14.63;;;13.33;;
8131;SDS011;4107;49.212;9.198;2022-08-19T00:32:06;14.87;;;13.27;;
8131;SDS011;4107;49.212;9.198;2022-08-19T00:34:32;14.73;;;13.33;;
8131;SDS011;4107;49.212;9.198;2022-08-19T00:36:58;14.83;;;13.43;;
8131;SDS011;4107;49.212;9.198;2022-08-19T00:39:24;14.93;;;13.63;;
8131;SDS011;4107;49.212;9.198;2022-08-19T00:41:50;15.07;;;13.73;;
8131;SDS011;4107;49.212;9.198;2022-08-19T00:44:20;15.73;;;14.20;;
8131;SDS011;4107;49.212;9.198;2022-08-19T00:46:48;15.07;;;13.67;;
8131;SDS011;4107;49.212;9.198;2022-08-19T00:49:16;15.87;;;14.30;;
8131;SDS011;4107;49.212;9.198;2022-08-19T00:51:51;15.73;;;14.27;;
8131;SDS011;4107;49.212;9.198;2022-08-19T00:54:22;15.37;;;13.97;;
8131;SDS011;4107;49.212;9.198;2022-08-19T00:56:48;15.40;;;13.80;;
8131;SDS011;4107;49.212;9.198;2022-08-19T00:59:15;15.80;;;14.33;;
8131;SDS011;4107;49.212;9.198;2022-08-19T01:01:42;15.30;;;13.80;;
8131;SDS011;4107;49.212;9.198;2022-08-19T01:04:09;15.03;;;13.53;;
8131;SDS011;4107;49.212;9.198;2022-08-19T01:06:35;15.23;;;13.73;;
8131;SDS011;4107;49.212;9.198;2022-08-19T01:09:03;16.07;;;14.57;;
8131;SDS011;4107;49.212;9.198;2022-08-19T01:11:30;15.03;;;13.53;;
8131;SDS011;4107;49.212;9.198;2022-08-19T01:13:58;15.23;;;13.83;;
8131;SDS011;4107;49.212;9.198;2022-08-19T01:16:24;15.77;;;14.13;;
8131;SDS011;4107;49.212;9.198;2022-08-19T01:18:54;16.07;;;14.40;;
8131;SDS011;4107;49.212;9.198;2022-08-19T01:21:31;15.60;;;14.00;;
8131;SDS011;4107;49.212;9.198;2022-08-19T01:24:09;16.50;;;14.73;;
8131;SDS011;4107;49.212;9.198;2022-08-19T01:26:38;16.57;;;14.83;;
8131;SDS011;4107;49.212;9.198;2022-08-19T01:29:07;16.07;;;14.40;;
8131;SDS011;4107;49.212;9.198;2022-08-19T01:31:33;16.20;;;14.57;;
8131;SDS011;4107;49.212;9.198;2022-08-19T01:34:00;16.60;;;15.00;;
8131;SDS011;4107;49.212;9.198;2022-08-19T01:36:38;16.37;;;14.77;;
8131;SDS011;4107;49.212;9.198;2022-08-19T01:39:08;16.03;;;14.53;;
8131;SDS011;4107;49.212;9.198;2022-08-19T01:41:37;15.93;;;14.37;;
8131;SDS011;4107;49.212;9.198;2022-08-19T01:44:03;16.40;;;14.90;;
8131;SDS011;4107;49.212;9.198;2022-08-19T01:46:31;16.37;;;14.77;;
8131;SDS011;4107;49.212;9.198;2022-08-19T01:48:57;17.07;;;15.20;;
8131;SDS011;4107;49.212;9.198;2022-08-19T01:51:23;16.47;;;14.87;;
8131;SDS011;4107;49.212;9.198;2022-08-19T01:53:49;15.93;;;14.43;;
8131;SDS011;4107;49.212;9.198;2022-08-19T01:56:15;16.73;;;15.03;;
8131;SDS011;4107;49.212;9.198;2022-08-19T01:58:43;17.10;;;15.47;;
8131;SDS011;4107;49.212;9.198;2022-08-19T02:01:15;16.70;;;15.10;;
8131;SDS011;4107;49.212;9.198;2022-08-19T02:03:41;16.60;;;15.00;;
8131;SDS011;4107;49.212;9.198;2022-08-19T02:06:07;16.63;;;14.97;;
8131;SDS011;4107;49.212;9.198;2022-08-19T02:08:33;17.20;;;15.40;;
8131;SDS011;4107;49.212;9.198;2022-08-19T02:11:01;17.70;;;15.90;;
8131;SDS011;4107;49.212;9.198;2022-08-19T02:13:28;18.97;;;17.03;;
8131;SDS011;4107;49.212;9.198;2022-08-19T02:15:54;19.40;;;17.33;;
8131;SDS011;4107;49.212;9.198;2022-08-19T02:18:19;19.97;;;17.87;;
8131;SDS011;4107;49.212;9.198;2022-08-19T02:20:45;18.63;;;16.83;;
8131;SDS011;4107;49.212;9.198;2022-08-19T02:23:13;20.27;;;18.17;;
8131;SDS011;4107;49.212;9.198;2022-08-19T02:25:41;20.60;;;18.50;;
8131;SDS011;4107;49.212;9.198;2022-08-19T02:28:07;20.50;;;17.97;;
8131;SDS011;4107;49.212;9.198;2022-08-19T02:30:32;21.87;;;17.83;;
8131;SDS011;4107;49.212;9.198;2022-08-19T02:32:58;20.90;;;18.80;;
8131;SDS011;4107;49.212;9.198;2022-08-19T02:35:24;21.83;;;19.30;;
8131;SDS011;4107;49.212;9.198;2022-08-19T02:37:50;23.23;;;19.03;;
8131;SDS011;4107;49.212;9.198;2022-08-19T02:40:34;21.07;;;18.87;;
8131;SDS011;4107;49.212;9.198;2022-08-19T02:43:03;23.10;;;20.30;;
8131;SDS011;4107;49.212;9.198;2022-08-19T02:45:37;21.53;;;19.23;;
8131;SDS011;4107;49.212;9.198;2022-08-19T02:48:07;23.87;;;20.00;;
8131;SDS011;4107;49.212;9.198;2022-08-19T02:50:33;23.53;;;19.37;;
8131;SDS011;4107;49.212;9.198;2022-08-19T02:53:05;22.03;;;19.63;;
8131;SDS011;4107;49.212;9.198;2022-08-19T02:55:32;21.60;;;19.10;;
8131;SDS011;4107;49.212;9.198;2022-08-19T02:57:58;22.43;;;20.03;;
8131;SDS011;4107;49.212;9.198;2022-08-19T03:00:24;21.60;;;19.13;;
8131;SDS011;4107;49.212;9.198;2022-08-19T03:02:51;22.70;;;20.23;;
8131;SDS011;4107;49.212;9.198;2022-08-19T03:05:17;21.40;;;19.17;;
8131;SDS011;4107;49.212;9.198;2022-08-19T03:07:43;21.20;;;18.57;;
8131;SDS011;4107;49.212;9.198;2022-08-19T03:10:08;22.73;;;19.60;;
8131;SDS011;4107;49.212;9.198;2022-08-19T03:12:35;22.00;;;19.43;;
8131;SDS011;4107;49.212;9.198;2022-08-19T03:15:03;21.97;;;19.63;;
8131;SDS011;4107;49.212;9.198;2022-08-19T03:17:33;20.23;;;18.10;;
8131;SDS011;4107;49.212;9.198;2022-08-19T03:19:59;21.87;;;18.00;;
8131;SDS011;4107;49.212;9.198;2022-08-19T03:22:25;22.70;;;19.43;;
8131;SDS011;4107;49.212;9.198;2022-08-19T03:24:50;20.90;;;18.60;;
8131;SDS011;4107;49.212;9.198;2022-08-19T03:27:16;23.73;;;19.83;;
8131;SDS011;4107;49.212;9.198;2022-08-19T03:29:42;21.83;;;19.53;;
8131;SDS011;4107;49.212;9.198;2022-08-19T03:32:09;22.37;;;18.83;;
8131;SDS011;4107;49.212;9.198;2022-08-19T03:34:36;21.83;;;19.37;;
8131;SDS011;4107;49.212;9.198;2022-08-19T03:37:04;20.60;;;18.40;;
8131;SDS011;4107;49.212;9.198;2022-08-19T03:39:31;21.37;;;19.07;;
8131;SDS011;4107;49.212;9.198;2022-08-19T03:41:57;20.70;;;18.50;;
8131;SDS011;4107;49.212;9.198;2022-08-19T03:44:24;21.13;;;18.90;;
8131;SDS011;4107;49.212;9.198;2022-08-19T03:46:54;19.67;;;17.67;;
8131;SDS011;4107;49.212;9.198;2022-08-19T03:49:22;21.37;;;19.17;;
8131;SDS011;4107;49.212;9.198;2022-08-19T03:51:50;19.70;;;17.70;;
8131;SDS011;4107;49.212;9.198;2022-08-19T03:54:20;19.83;;;17.73;;
8131;SDS011;4107;49.212;9.198;2022-08-19T03:56:48;21.50;;;19.20;;
8131;SDS011;4107;49.212;9.198;2022-08-19T03:59:18;20.80;;;18.30;;
8131;SDS011;4107;49.212;9.198;2022-08-19T04:01:55;21.03;;;18.60;;
8131;SDS011;4107;49.212;9.198;2022-08-19T04:04:23;20.13;;;18.03;;
8131;SDS011;4107;49.212;9.198;2022-08-19T04:06:49;20.13;;;17.80;;
8131;SDS011;4107;49.212;9.198;2022-08-19T04:09:16;19.80;;;17.70;;
8131;SDS011;4107;49.212;9.198;2022-08-19T04:11:46;18.03;;;16.23;;
8131;SDS011;4107;49.212;9.198;2022-08-19T04:14:15;19.93;;;17.60;;
8131;SDS011;4107;49.212;9.198;2022-08-19T04:16:43;20.70;;;17.97;;
8131;SDS011;4107;49.212;9.198;2022-08-19T04:19:10;20.93;;;18.30;;
8131;SDS011;4107;49.212;9.198;2022-08-19T04:21:36;19.47;;;17.17;;
8131;SDS011;4107;49.212;9.198;2022-08-19T04:24:03;21.63;;;18.93;;
8131;SDS011;4107;49.212;9.198;2022-08-19T04:26:31;21.67;;;18.97;;
8131;SDS011;4107;49.212;9.198;2022-08-19T04:29:03;21.90;;;18.43;;
8131;SDS011;4107;49.212;9.198;2022-08-19T04:31:31;21.90;;;19.50;;
8131;SDS011;4107;49.212;9.198;2022-08-19T04:34:01;21.13;;;18.60;;
8131;SDS011;4107;49.212;9.198;2022-08-19T04:36:30;20.63;;;18.53;;
8131;SDS011;4107;49.212;9.198;2022-08-19T04:38:57;20.53;;;18.37;;
8131;SDS011;4107;49.212;9.198;2022-08-19T04:41:25;22.10;;;19.13;;
8131;SDS011;4107;49.212;9.198;2022-08-19T04:44:10;20.73;;;18.53;;
8131;SDS011;4107;49.212;9.198;2022-08-19T04:46:36;20.00;;;17.90;;
8131;SDS011;4107;49.212;9.198;2022-08-19T04:49:02;21.63;;;19.07;;
8131;SDS011;4107;49.212;9.198;2022-08-19T04:51:30;20.83;;;18.43;;
8131;SDS011;4107;49.212;9.198;2022-08-19T04:53:56;22.33;;;18.80;;
8131;SDS011;4107;49.212;9.198;2022-08-19T04:56:23;20.43;;;18.23;;
8131;SDS011;4107;49.212;9.198;2022-08-19T04:58:51;20.93;;;18.73;;
8131;SDS011;4107;49.212;9.198;2022-08-19T05:01:18;20.97;;;18.77;;
8131;SDS011;4107;49.212;9.198;2022-08-19T05:03:45;22.10;;;19.03;;
8131;SDS011;4107;49.212;9.198;2022-08-19T05:06:14;22.77;;;18.83;;
8131;SDS011;4107;49.212;9.198;2022-08-19T05:08:42;22.13;;;18.47;;
8131;SDS011;4107;49.212;9.198;2022-08-19T05:11:28;20.80;;;18.53;;
8131;SDS011;4107;49.212;9.198;2022-08-19T05:13:56;19.83;;;17.70;;
8131;SDS011;4107;49.212;9.198;2022-08-19T05:16:23;20.40;;;18.20;;
8131;SDS011;4107;49.212;9.198;2022-08-19T05:18:50;20.33;;;18.20;;
8131;SDS011;4107;49.212;9.198;2022-08-19T05:21:35;22.00;;;18.70;;
8131;SDS011;4107;49.212;9.198;2022-08-19T05:24:21;22.13;;;18.40;;
8131;SDS011;4107;49.212;9.198;2022-08-19T05:26:49;21.57;;;17.67;;
8131;SDS011;4107;49.212;9.198;2022-08-19T05:29:16;19.97;;;17.87;;
8131;SDS011;4107;49.212;9.198;2022-08-19T05:31:44;19.43;;;17.43;;
8131;SDS011;4107;49.212;9.198;2022-08-19T05:34:11;21.13;;;18.73;;
8131;SDS011;4107;49.212;9.198;2022-08-19T05:36:38;22.10;;;18.70;;
8131;SDS011;4107;49.212;9.198;2022-08-19T05:39:07;19.80;;;17.70;;
8131;SDS011;4107;49.212;9.198;2022-08-19T05:41:33;20.53;;;17.57;;
8131;SDS011;4107;49.212;9.198;2022-08-19T05:44:03;18.60;;;16.60;;
8131;SDS011;4107;49.212;9.198;2022-08-19T05:46:34;19.63;;;17.17;;
8131;SDS011;4107;49.212;9.198;2022-08-19T05:49:07;19.73;;;17.47;;
8131;SDS011;4107;49.212;9.198;2022-08-19T05:51:34;19.27;;;16.03;;
8131;SDS011;4107;49.212;9.198;2022-08-19T05:54:02;19.53;;;17.00;;
8131;SDS011;4107;49.212;9.198;2022-08-19T05:56:30;23.27;;;15.93;;
8131;SDS011;4107;49.212;9.198;2022-08-19T05:58:56;18.23;;;16.27;;
8131;SDS011;4107;49.212;9.198;2022-08-19T06:01:23;18.07;;;16.00;;
8131;SDS011;4107;49.212;9.198;2022-08-19T06:03:50;18.27;;;15.73;;
8131;SDS011;4107;49.212;9.198;2022-08-19T06:06:16;18.10;;;16.03;;
8131;SDS011;4107;49.212;9.198;2022-08-19T06:08:43;19.13;;;16.27;;
8131;SDS011;4107;49.212;9.198;2022-08-19T06:11:28;20.27;;;15.73;;
8131;SDS011;4107;49.212;9.198;2022-08-19T06:14:00;18.13;;;14.93;;
8131;SDS011;4107;49.212;9.198;2022-08-19T06:16:27;19.97;;;15.87;;
8131;SDS011;4107;49.212;9.198;2022-08-19T06:18:54;20.20;;;15.43;;
8131;SDS011;4107;49.212;9.198;2022-08-19T06:21:24;18.60;;;15.87;;
8131;SDS011;4107;49.212;9.198;2022-08-19T06:23:52;17.13;;;14.83;;
8131;SDS011;4107;49.212;9.198;2022-08-19T06:26:19;17.77;;;15.87;;
8131;SDS011;4107;49.212;9.198;2022-08-19T06:28:45;16.80;;;15.00;;
8131;SDS011;4107;49.212;9.198;2022-08-19T06:31:13;16.80;;;15.00;;
8131;SDS011;4107;49.212;9.198;2022-08-19T06:33:41;16.33;;;14.23;;
8131;SDS011;4107;49.212;9.198;2022-08-19T06:36:08;17.47;;;14.57;;
8131;SDS011;4107;49.212;9.198;2022-08-19T06:38:41;16.93;;;13.70;;
8131;SDS011;4107;49.212;9.198;2022-08-19T06:41:07;16.83;;;14.03;;
8131;SDS011;4107;49.212;9.198;2022-08-19T06:43:33;16.10;;;14.50;;
8131;SDS011;4107;49.212;9.198;2022-08-19T06:45:58;15.80;;;14.17;;
8131;SDS011;4107;49.212;9.198;2022-08-19T06:48:24;15.70;;;13.60;;
8131;SDS011;4107;49.212;9.198;2022-08-19T06:50:49;16.17;;;13.37;;
8131;SDS011;4107;49.212;9.198;2022-08-19T06:53:16;15.27;;;13.67;;
8131;SDS011;4107;49.212;9.198;2022-08-19T06:55:44;15.10;;;13.43;;
8131;SDS011;4107;49.212;9.198;2022-08-19T06:58:10;14.07;;;12.67;;
8131;SDS011;4107;49.212;9.198;2022-08-19T07:00:36;14.87;;;12.90;;
8131;SDS011;4107;49.212;9.198;2022-08-19T07:03:02;14.47;;;12.97;;
8131;SDS011;4107;49.212;9.198;2022-08-19T07:05:28;14.37;;;12.97;;
8131;SDS011;4107;49.212;9.198;2022-08-19T07:07:53;14.00;;;12.10;;
8131;SDS011;4107;49.212;9.198;2022-08-19T07:10:19;13.70;;;12.10;;
8131;SDS011;4107;49.212;9.198;2022-08-19T07:12:45;14.60;;;12.30;;
8131;SDS011;4107;49.212;9.198;2022-08-19T07:15:17;12.97;;;11.67;;
8131;SDS011;4107;49.212;9.198;2022-08-19T07:17:46;14.33;;;11.97;;
8131;SDS011;4107;49.212;9.198;2022-08-19T07:20:12;16.17;;;12.87;;
8131;SDS011;4107;49.212;9.198;2022-08-19T07:22:38;13.17;;;11.87;;
8131;SDS011;4107;49.212;9.198;2022-08-19T07:25:05;13.60;;;12.20;;
8131;SDS011;4107;49.212;9.198;2022-08-19T07:27:35;14.13;;;12.10;;
8131;SDS011;4107;49.212;9.198;2022-08-19T07:30:02;14.03;;;12.27;;
8131;SDS011;4107;49.212;9.198;2022-08-19T07:32:29;13.90;;;12.10;;
8131;SDS011;4107;49.212;9.198;2022-08-19T07:34:55;13.67;;;12.00;;
8131;SDS011;4107;49.212;9.198;2022-08-19T07:37:21;11.77;;;10.67;;
8131;SDS011;4107;49.212;9.198;2022-08-19T07:39:47;13.53;;;10.80;;
8131;SDS011;4107;49.212;9.198;2022-08-19T07:42:13;12.27;;;11.07;;
8131;SDS011;4107;49.212;9.198;2022-08-19T07:44:45;11.83;;;10.50;;
8131;SDS011;4107;49.212;9.198;2022-08-19T07:47:11;11.97;;;10.87;;
8131;SDS011;4107;49.212;9.198;2022-08-19T07:49:40;11.97;;;10.57;;
8131;SDS011;4107;49.212;9.198;2022-08-19T07:52:08;13.83;;;11.17;;
8131;SDS011;4107;49.212;9.198;2022-08-19T07:54:46;13.03;;;10.77;;
8131;SDS011;4107;49.212;9.198;2022-08-19T07:57:12;12.33;;;10.47;;
8131;SDS011;4107;49.212;9.198;2022-08-19T07:59:38;12.80;;;10.70;;
8131;SDS011;4107;49.212;9.198;2022-08-19T08:02:04;12.47;;;10.97;;
8131;SDS011;4107;49.212;9.198;2022-08-19T08:04:30;12.20;;;10.63;;
8131;SDS011;4107;49.212;9.198;2022-08-19T08:07:15;12.40;;;11.10;;
8131;SDS011;4107;49.212;9.198;2022-08-19T08:10:00;11.63;;;10.47;;
8131;SDS011;4107;49.212;9.198;2022-08-19T08:12:33;12.57;;;11.20;;
8131;SDS011;4107;49.212;9.198;2022-08-19T08:15:11;12.27;;;10.97;;
8131;SDS011;4107;49.212;9.198;2022-08-19T08:17:41;11.97;;;10.77;;
8131;SDS011;4107;49.212;9.198;2022-08-19T08:20:07;12.90;;;11.43;;
8131;SDS011;4107;49.212;9.198;2022-08-19T08:22:33;11.10;;;10.00;;
8131;SDS011;4107;49.212;9.198;2022-08-19T08:25:19;12.03;;;10.57;;
8131;SDS011;4107;49.212;9.198;2022-08-19T08:27:47;12.47;;;11.20;;
8131;SDS011;4107;49.212;9.198;2022-08-19T08:30:19;12.50;;;11.27;;
8131;SDS011;4107;49.212;9.198;2022-08-19T08:32:47;13.60;;;11.53;;
8131;SDS011;4107;49.212;9.198;2022-08-19T08:35:15;13.73;;;11.60;;
8131;SDS011;4107;49.212;9.198;2022-08-19T08:37:43;12.27;;;10.40;;
8131;SDS011;4107;49.212;9.198;2022-08-19T08:40:14;13.90;;;11.33;;
8131;SDS011;4107;49.212;9.198;2022-08-19T08:42:58;11.80;;;9.60;;
8131;SDS011;4107;49.212;9.198;2022-08-19T08:45:50;10.87;;;9.77;;
8131;SDS011;4107;49.212;9.198;2022-08-19T08:48:25;12.63;;;10.67;;
8131;SDS011;4107;49.212;9.198;2022-08-19T08:51:15;11.80;;;10.70;;
8131;SDS011;4107;49.212;9.198;2022-08-19T08:53:54;13.13;;;10.60;;
8131;SDS011;4107;49.212;9.198;2022-08-19T08:56:21;10.83;;;9.90;;
8131;SDS011;4107;49.212;9.198;2022-08-19T09:01:22;11.23;;;10.23;;
8131;SDS011;4107;49.212;9.198;2022-08-19T09:03:48;12.10;;;10.33;;
8131;SDS011;4107;49.212;9.198;2022-08-19T09:06:18;10.77;;;9.70;;
8131;SDS011;4107;49.212;9.198;2022-08-19T09:09:03;11.93;;;9.93;;
8131;SDS011;4107;49.212;9.198;2022-08-19T09:11:40;9.93;;;9.03;;
8131;SDS011;4107;49.212;9.198;2022-08-19T09:14:31;11.70;;;9.93;;
8131;SDS011;4107;49.212;9.198;2022-08-19T09:17:02;17.50;;;10.03;;
8131;SDS011;4107;49.212;9.198;2022-08-19T09:19:28;10.27;;;9.27;;
8131;SDS011;4107;49.212;9.198;2022-08-19T09:21:55;9.80;;;8.80;;
8131;SDS011;4107;49.212;9.198;2022-08-19T09:24:20;9.60;;;8.67;;
8131;SDS011;4107;49.212;9.198;2022-08-19T09:26:46;9.33;;;8.37;;
8131;SDS011;4107;49.212;9.198;2022-08-19T09:29:12;9.70;;;8.70;;
8131;SDS011;4107;49.212;9.198;2022-08-19T09:31:45;9.00;;;8.10;;
8131;SDS011;4107;49.212;9.198;2022-08-19T09:34:11;12.23;;;8.23;;
8131;SDS011;4107;49.212;9.198;2022-08-19T09:36:36;10.33;;;7.20;;
8131;SDS011;4107;49.212;9.198;2022-08-19T09:39:04;10.03;;;6.20;;
8131;SDS011;4107;49.212;9.198;2022-08-19T09:41:30;7.03;;;6.33;;
8131;SDS011;4107;49.212;9.198;2022-08-19T09:44:05;8.80;;;5.53;;
8131;SDS011;4107;49.212;9.198;2022-08-19T09:46:31;5.90;;;4.83;;
8131;SDS011;4107;49.212;9.198;2022-08-19T09:48:58;6.53;;;5.43;;
8131;SDS011;4107;49.212;9.198;2022-08-19T09:51:25;5.97;;;4.97;;
8131;SDS011;4107;49.212;9.198;2022-08-19T09:53:53;6.43;;;5.30;;
8131;SDS011;4107;49.212;9.198;2022-08-19T09:56:20;9.27;;;5.13;;
8131;SDS011;4107;49.212;9.198;2022-08-19T09:58:47;6.10;;;5.10;;
8131;SDS011;4107;49.212;9.198;2022-08-19T10:01:17;6.27;;;5.00;;
8131;SDS011;4107;49.212;9.198;2022-08-19T10:03:46;5.23;;;4.73;;
8131;SDS011;4107;49.212;9.198;2022-08-19T10:06:13;5.67;;;5.00;;
8131;SDS011;4107;49.212;9.198;2022-08-19T10:08:39;6.53;;;5.03;;
8131;SDS011;4107;49.212;9.198;2022-08-19T10:11:05;5.20;;;4.57;;
8131;SDS011;4107;49.212;9.198;2022-08-19T10:13:31;5.75;;;5.25;;
8131;SDS011;4107;49.212;9.198;2022-08-19T10:16:04;5.28;;;4.78;;
8131;SDS011;4107;49.212;9.198;2022-08-19T10:18:31;5.90;;;4.90;;
8131;SDS011;4107;49.212;9.198;2022-08-19T10:21:09;6.10;;;4.97;;
8131;SDS011;4107;49.212;9.198;2022-08-19T10:23:39;5.68;;;4.80;;
8131;SDS011;4107;49.212;9.198;2022-08-19T10:26:06;5.72;;;4.72;;
8131;SDS011;4107;49.212;9.198;2022-08-19T10:28:33;6.00;;;5.18;;
8131;SDS011;4107;49.212;9.198;2022-08-19T10:31:05;5.53;;;4.65;;
8131;SDS011;4107;49.212;9.198;2022-08-19T10:33:39;5.03;;;4.53;;
8131;SDS011;4107;49.212;9.198;2022-08-19T10:36:09;5.72;;;4.72;;
8131;SDS011;4107;49.212;9.198;2022-08-19T10:38:37;8.02;;;4.85;;
8131;SDS011;4107;49.212;9.198;2022-08-19T10:41:12;4.72;;;4.07;;
8131;SDS011;4107;49.212;9.198;2022-08-19T10:43:41;4.90;;;4.07;;
8131;SDS011;4107;49.212;9.198;2022-08-19T10:46:08;5.38;;;4.30;;
8131;SDS011;4107;49.212;9.198;2022-08-19T10:48:35;4.40;;;4.03;;
8131;SDS011;4107;49.212;9.198;2022-08-19T10:51:01;5.38;;;4.43;;
8131;SDS011;4107;49.212;9.198;2022-08-19T10:53:46;4.40;;;3.97;;
8131;SDS011;4107;49.212;9.198;2022-08-19T10:56:12;6.13;;;4.35;;
8131;SDS011;4107;49.212;9.198;2022-08-19T10:58:56;6.85;;;4.30;;
8131;SDS011;4107;49.212;9.198;2022-08-19T11:01:23;4.85;;;3.70;;
8131;SDS011;4107;49.212;9.198;2022-08-19T11:03:52;4.30;;;3.80;;
8131;SDS011;4107;49.212;9.198;2022-08-19T11:06:18;4.75;;;4.10;;
8131;SDS011;4107;49.212;9.198;2022-08-19T11:08:45;4.00;;;3.70;;
8131;SDS011;4107;49.212;9.198;2022-08-19T11:11:11;4.47;;;4.07;;
8131;SDS011;4107;49.212;9.198;2022-08-19T11:13:40;4.57;;;3.75;;
8131;SDS011;4107;49.212;9.198;2022-08-19T11:16:07;4.20;;;3.80;;
8131;SDS011;4107;49.212;9.198;2022-08-19T11:18:36;3.75;;;3.45;;
8131;SDS011;4107;49.212;9.198;2022-08-19T11:21:12;4.28;;;3.83;;
8131;SDS011;4107;49.212;9.198;2022-08-19T11:23:44;4.18;;;3.63;;
8131;SDS011;4107;49.212;9.198;2022-08-19T11:26:11;4.40;;;4.00;;
8131;SDS011;4107;49.212;9.198;2022-08-19T11:28:38;4.55;;;3.88;;
8131;SDS011;4107;49.212;9.198;2022-08-19T11:31:11;4.28;;;3.88;;
8131;SDS011;4107;49.212;9.198;2022-08-19T11:33:38;4.30;;;3.90;;
8131;SDS011;4107;49.212;9.198;2022-08-19T11:36:05;4.40;;;4.07;;
8131;SDS011;4107;49.212;9.198;2022-08-19T11:38:31;4.30;;;3.83;;
8131;SDS011;4107;49.212;9.198;2022-08-19T11:41:00;4.50;;;3.90;;
8131;SDS011;4107;49.212;9.198;2022-08-19T11:43:28;4.78;;;4.22;;
8131;SDS011;4107;49.212;9.198;2022-08-19T11:45:55;5.80;;;4.07;;
8131;SDS011;4107;49.212;9.198;2022-08-19T11:48:21;5.53;;;4.15;;
8131;SDS011;4107;49.212;9.198;2022-08-19T11:50:50;4.18;;;3.80;;
8131;SDS011;4107;49.212;9.198;2022-08-19T11:53:18;4.63;;;3.65;;
8131;SDS011;4107;49.212;9.198;2022-08-19T11:55:45;4.40;;;4.00;;
8131;SDS011;4107;49.212;9.198;2022-08-19T11:58:12;3.80;;;3.50;;
8131;SDS011;4107;49.212;9.198;2022-08-19T12:00:38;4.32;;;3.70;;
8131;SDS011;4107;49.212;9.198;2022-08-19T12:03:05;3.92;;;3.50;;
8131;SDS011;4107;49.212;9.198;2022-08-19T12:05:31;4.38;;;3.97;;
8131;SDS011;4107;49.212;9.198;2022-08-19T12:07:57;4.10;;;3.67;;
8131;SDS011;4107;49.212;9.198;2022-08-19T12:10:25;3.95;;;3.65;;
8131;SDS011;4107;49.212;9.198;2022-08-19T12:12:53;4.32;;;4.00;;
8131;SDS011;4107;49.212;9.198;2022-08-19T12:15:19;4.00;;;3.58;;
8131;SDS011;4107;49.212;9.198;2022-08-19T12:17:44;4.47;;;3.67;;
8131;SDS011;4107;49.212;9.198;2022-08-19T12:20:11;4.28;;;3.88;;
8131;SDS011;4107;49.212;9.198;2022-08-19T12:22:38;4.20;;;3.83;;
8131;SDS011;4107;49.212;9.198;2022-08-19T12:25:11;4.88;;;3.88;;
8131;SDS011;4107;49.212;9.198;2022-08-19T12:27:37;4.57;;;3.80;;
8131;SDS011;4107;49.212;9.198;2022-08-19T12:30:04;4.18;;;3.78;;
8131;SDS011;4107;49.212;9.198;2022-08-19T12:32:31;5.28;;;3.42;;
8131;SDS011;4107;49.212;9.198;2022-08-19T12:34:57;5.10;;;3.30;;
8131;SDS011;4107;49.212;9.198;2022-08-19T12:37:23;4.07;;;3.78;;
8131;SDS011;4107;49.212;9.198;2022-08-19T12:39:49;3.75;;;3.45;;
8131;SDS011;4107;49.212;9.198;2022-08-19T12:42:14;6.28;;;3.65;;
8131;SDS011;4107;49.212;9.198;2022-08-19T12:44:41;5.35;;;3.80;;
8131;SDS011;4107;49.212;9.198;2022-08-19T12:47:08;5.95;;;3.45;;
8131;SDS011;4107;49.212;9.198;2022-08-19T12:49:35;3.80;;;3.50;;
8131;SDS011;4107;49.212;9.198;2022-08-19T12:52:05;4.00;;;3.60;;
8131;SDS011;4107;49.212;9.198;2022-08-19T12:54:32;4.00;;;3.30;;
8131;SDS011;4107;49.212;9.198;2022-08-19T12:56:59;4.25;;;3.75;;
8131;SDS011;4107;49.212;9.198;2022-08-19T12:59:25;5.25;;;3.70;;
8131;SDS011;4107;49.212;9.198;2022-08-19T13:01:52;4.78;;;4.03;;
8131;SDS011;4107;49.212;9.198;2022-08-19T13:04:18;4.10;;;3.70;;
8131;SDS011;4107;49.212;9.198;2022-08-19T13:06:50;4.20;;;3.80;;
8131;SDS011;4107;49.212;9.198;2022-08-19T13:09:16;4.57;;;4.18;;
8131;SDS011;4107;49.212;9.198;2022-08-19T13:11:42;6.70;;;3.40;;
8131;SDS011;4107;49.212;9.198;2022-08-19T13:14:09;6.88;;;4.00;;
8131;SDS011;4107;49.212;9.198;2022-08-19T13:16:36;5.60;;;3.85;;
8131;SDS011;4107;49.212;9.198;2022-08-19T13:19:03;7.30;;;4.63;;
8131;SDS011;4107;49.212;9.198;2022-08-19T13:21:30;6.70;;;4.55;;
8131;SDS011;4107;49.212;9.198;2022-08-19T13:23:56;7.90;;;4.25;;
8131;SDS011;4107;49.212;9.198;2022-08-19T13:26:22;4.47;;;4.18;;
8131;SDS011;4107;49.212;9.198;2022-08-19T13:28:48;4.32;;;3.92;;
8131;SDS011;4107;49.212;9.198;2022-08-19T13:31:34;7.70;;;4.93;;
8131;SDS011;4107;49.212;9.198;2022-08-19T13:34:25;4.05;;;3.65;;
8131;SDS011;4107;49.212;9.198;2022-08-19T13:36:53;4.40;;;4.00;;
8131;SDS011;4107;49.212;9.198;2022-08-19T13:39:18;4.47;;;4.07;;
8131;SDS011;4107;49.212;9.198;2022-08-19T13:41:45;4.90;;;4.40;;
8131;SDS011;4107;49.212;9.198;2022-08-19T13:44:13;9.93;;;4.53;;
8131;SDS011;4107;49.212;9.198;2022-08-19T13:46:40;4.13;;;3.83;;
8131;SDS011;4107;49.212;9.198;2022-08-19T13:49:09;10.43;;;5.93;;
8131;SDS011;4107;49.212;9.198;2022-08-19T13:51:37;5.25;;;4.57;;
8131;SDS011;4107;49.212;9.198;2022-08-19T13:54:10;4.32;;;3.92;;
8131;SDS011;4107;49.212;9.198;2022-08-19T13:56:43;4.95;;;4.55;;
8131;SDS011;4107;49.212;9.198;2022-08-19T13:59:10;4.30;;;3.90;;
8131;SDS011;4107;49.212;9.198;2022-08-19T14:01:37;4.40;;;4.00;;
8131;SDS011;4107;49.212;9.198;2022-08-19T14:04:03;4.82;;;4.43;;
8131;SDS011;4107;49.212;9.198;2022-08-19T14:06:32;4.78;;;4.38;;
8131;SDS011;4107;49.212;9.198;2022-08-19T14:08:59;4.70;;;4.30;;
8131;SDS011;4107;49.212;9.198;2022-08-19T14:11:24;4.38;;;4.07;;
8131;SDS011;4107;49.212;9.198;2022-08-19T14:13:51;4.20;;;3.90;;
8131;SDS011;4107;49.212;9.198;2022-08-19T14:16:17;4.75;;;4.43;;
8131;SDS011;4107;49.212;9.198;2022-08-19T14:18:43;5.47;;;4.40;;
8131;SDS011;4107;49.212;9.198;2022-08-19T14:21:15;5.20;;;4.70;;
8131;SDS011;4107;49.212;9.198;2022-08-19T14:23:45;4.95;;;4.47;;
8131;SDS011;4107;49.212;9.198;2022-08-19T14:26:12;5.10;;;4.70;;
8131;SDS011;4107;49.212;9.198;2022-08-19T14:28:40;5.18;;;4.78;;
8131;SDS011;4107;49.212;9.198;2022-08-19T14:31:07;5.28;;;4.78;;
8131;SDS011;4107;49.212;9.198;2022-08-19T14:33:36;5.00;;;4.50;;
8131;SDS011;4107;49.212;9.198;2022-08-19T14:36:02;4.78;;;4.38;;
8131;SDS011;4107;49.212;9.198;2022-08-19T14:38:28;5.40;;;4.90;;
8131;SDS011;4107;49.212;9.198;2022-08-19T14:41:04;5.28;;;4.55;;
8131;SDS011;4107;49.212;9.198;2022-08-19T14:43:42;5.00;;;4.50;;
8131;SDS011;4107;49.212;9.198;2022-08-19T14:46:11;4.80;;;4.20;;
8131;SDS011;4107;49.212;9.198;2022-08-19T14:48:38;4.95;;;4.28;;
8131;SDS011;4107;49.212;9.198;2022-08-19T14:51:04;8.07;;;5.20;;
8131;SDS011;4107;49.212;9.198;2022-08-19T14:53:31;14.10;;;5.40;;
8131;SDS011;4107;49.212;9.198;2022-08-19T14:55:58;12.90;;;5.30;;
8131;SDS011;4107;49.212;9.198;2022-08-19T14:58:24;14.00;;;6.22;;
8131;SDS011;4107;49.212;9.198;2022-08-19T15:00:50;5.82;;;4.70;;
8131;SDS011;4107;49.212;9.198;2022-08-19T15:03:16;12.60;;;5.85;;
8131;SDS011;4107;49.212;9.198;2022-08-19T15:05:41;8.35;;;5.30;;
8131;SDS011;4107;49.212;9.198;2022-08-19T15:08:07;6.72;;;5.25;;